Time;durP1;ratioP1;P1;durP2;ratioP2;P2;SDS_P1;SDS_P2;PMS_P1;PMS_P2;Temp;Humidity;BMP_temperature;BMP_pressure;BME280_temperature;BME280_humidity;BME280_pressure;Samples;Min_cycle;Max_cycle;Signal;HPM_P1;HPM_P2
2022/11/24 00:02:08;;;;;;;1.47;1.23;;;8.90;83.60;;;;;;5065581;28;20583;-73
2022/11/24 00:04:34;;;;;;;3.63;1.25;;;8.90;83.40;;;;;;5067573;28;20175;-73
2022/11/24 00:07:00;;;;;;;1.38;1.05;;;8.90;83.90;;;;;;5066065;28;20182;-73
2022/11/24 00:09:25;;;;;;;1.50;1.20;;;8.90;84.30;;;;;;5065551;28;20194;-73
2022/11/24 00:11:51;;;;;;;6.43;1.20;;;8.80;84.40;;;;;;5064062;28;20263;-73
2022/11/24 00:14:17;;;;;;;2.88;1.40;;;8.80;84.50;;;;;;5066943;28;20186;-73
2022/11/24 00:16:42;;;;;;;1.00;1.00;;;8.80;84.50;;;;;;5071114;28;20174;-73
2022/11/24 00:19:09;;;;;;;1.73;1.63;;;8.80;84.60;;;;;;5066038;28;20191;-73
2022/11/24 00:21:36;;;;;;;1.60;1.50;;;8.70;84.70;;;;;;5059593;28;20656;-73
2022/11/24 00:24:02;;;;;;;2.90;1.57;;;8.70;85.00;;;;;;5063990;28;20185;-73
2022/11/24 00:26:30;;;;;;;1.90;1.77;;;8.70;84.70;;;;;;5067160;28;20175;-72
2022/11/24 00:28:59;;;;;;;1.90;1.70;;;8.60;84.10;;;;;;5062011;28;20186;-73
2022/11/24 00:31:33;;;;;;;2.60;1.50;;;8.60;83.90;;;;;;5062380;28;20275;-72
2022/11/24 00:34:01;;;;;;;1.42;1.40;;;8.60;84.20;;;;;;5064576;28;20190;-73
2022/11/24 00:36:29;;;;;;;1.27;1.27;;;8.60;83.90;;;;;;5065065;28;20960;-73
2022/11/24 00:38:57;;;;;;;1.60;1.50;;;8.50;83.60;;;;;;5063386;28;20183;-73
2022/11/24 00:41:24;;;;;;;2.03;1.83;;;8.50;83.60;;;;;;5063785;28;20182;-73
2022/11/24 00:43:50;;;;;;;3.13;2.33;;;8.50;85.10;;;;;;5063956;28;20227;-72
2022/11/24 00:46:16;;;;;;;2.97;2.03;;;8.50;84.70;;;;;;5068586;28;20186;-73
2022/11/24 00:48:42;;;;;;;2.60;2.20;;;8.50;84.60;;;;;;5063701;28;20189;-73
2022/11/24 00:51:11;;;;;;;2.47;2.27;;;8.40;84.80;;;;;;5060013;28;20786;-73
2022/11/24 00:53:37;;;;;;;1.83;1.73;;;8.40;85.00;;;;;;5074851;28;20274;-73
2022/11/24 00:56:03;;;;;;;2.10;2.00;;;8.40;85.00;;;;;;5071905;28;20557;-73
2022/11/24 00:58:30;;;;;;;2.20;1.93;;;8.30;85.10;;;;;;5074024;28;20263;-73
2022/11/24 01:01:02;;;;;;;2.80;2.57;;;8.40;85.20;;;;;;5072313;28;20244;-74
2022/11/24 01:03:27;;;;;;;3.13;2.53;;;8.40;85.00;;;;;;5074257;28;20174;-74
2022/11/24 01:05:53;;;;;;;2.27;2.17;;;8.40;85.20;;;;;;5074190;28;20223;-73
2022/11/24 01:08:19;;;;;;;3.50;2.40;;;8.30;85.20;;;;;;5072011;28;20189;-73
2022/11/24 01:10:44;;;;;;;4.20;3.10;;;8.30;84.70;;;;;;5070663;28;20218;-73
2022/11/24 01:13:12;;;;;;;4.13;2.80;;;8.30;85.10;;;;;;5068034;28;20709;-73
2022/11/24 01:15:38;;;;;;;2.60;2.40;;;8.30;85.20;;;;;;5070705;28;20183;-73
2022/11/24 01:18:04;;;;;;;2.10;1.90;;;8.30;85.00;;;;;;5070752;28;20182;-73
2022/11/24 01:20:31;;;;;;;2.07;1.97;;;8.20;84.90;;;;;;5067795;28;20187;-73
2022/11/24 01:22:56;;;;;;;1.87;1.77;;;8.20;85.40;;;;;;5074159;28;20217;-73
2022/11/24 01:25:22;;;;;;;1.43;1.33;;;8.20;85.40;;;;;;5072733;28;20206;-73
2022/11/24 01:27:48;;;;;;;1.50;1.40;;;8.20;85.40;;;;;;5073233;28;20217;-73
2022/11/24 01:30:13;;;;;;;1.73;1.63;;;8.20;85.80;;;;;;5070353;28;20187;-73
2022/11/24 01:32:39;;;;;;;1.70;1.70;;;8.20;85.70;;;;;;5076822;28;20189;-73
2022/11/24 01:35:06;;;;;;;1.67;1.57;;;8.20;85.90;;;;;;5070593;28;20793;-74
2022/11/24 01:37:32;;;;;;;2.10;2.00;;;8.20;85.30;;;;;;5072629;28;20207;-73
2022/11/24 01:39:58;;;;;;;1.47;1.47;;;8.20;85.20;;;;;;5070242;28;20653;-73
2022/11/24 01:42:23;;;;;;;2.10;1.60;;;8.20;85.00;;;;;;5074936;28;20194;-73
2022/11/24 01:45:27;;;;;;;2.37;1.53;;;8.20;85.70;;;;;;5075278;28;20190;-74
2022/11/24 01:47:53;;;;;;;1.80;1.70;;;8.20;85.00;;;;;;5068271;28;20191;-74
2022/11/24 01:50:19;;;;;;;1.80;1.70;;;8.20;84.70;;;;;;5071310;28;20691;-73
2022/11/24 01:52:50;;;;;;;2.23;2.00;;;8.30;84.50;;;;;;5074566;28;20179;-73
2022/11/24 01:55:21;;;;;;;1.90;1.80;;;8.30;84.90;;;;;;5071592;28;20990;-73
2022/11/24 01:57:52;;;;;;;3.27;2.10;;;8.40;85.00;;;;;;5073761;28;20192;-73
2022/11/24 02:00:18;;;;;;;2.70;2.07;;;8.40;84.80;;;;;;5072393;28;20704;-73
2022/11/24 02:02:44;;;;;;;2.17;1.93;;;8.40;84.40;;;;;;5073566;28;20269;-74
2022/11/24 02:05:25;;;;;;;2.53;1.90;;;8.50;84.40;;;;;;5065944;28;20190;-74
2022/11/24 02:07:54;;;;;;;1.73;1.63;;;8.50;84.00;;;;;;5070626;28;20263;-73
2022/11/24 02:10:20;;;;;;;2.50;1.93;;;8.60;85.20;;;;;;5072592;28;20186;-73
2022/11/24 02:12:49;;;;;;;1.40;1.40;;;8.60;84.80;;;;;;5070054;28;20193;-73
2022/11/24 02:15:16;;;;;;;2.23;1.83;;;8.60;84.50;;;;;;5069199;28;20186;-73
2022/11/24 02:17:43;;;;;;;2.37;1.50;;;8.60;85.10;;;;;;5063093;28;20195;-74
2022/11/24 02:20:10;;;;;;;1.87;1.77;;;8.70;84.70;;;;;;5070508;28;20186;-73
2022/11/24 02:23:00;;;;;;;2.07;1.97;;;8.70;84.60;;;;;;5074285;28;20588;-73
2022/11/24 02:25:43;;;;;;;2.47;1.83;;;8.70;84.90;;;;;;5068468;28;20276;-73
2022/11/24 02:28:14;;;;;;;4.40;2.17;;;8.70;84.60;;;;;;5064482;28;20183;-73
2022/11/24 02:30:40;;;;;;;1.80;1.70;;;8.70;85.00;;;;;;5063908;28;20700;-73
2022/11/24 02:33:05;;;;;;;3.47;1.93;;;8.80;85.20;;;;;;5064694;28;20248;-73
2022/11/24 02:35:32;;;;;;;1.87;1.73;;;8.80;85.10;;;;;;5065914;28;20191;-73
2022/11/24 02:37:57;;;;;;;3.60;2.00;;;8.80;84.80;;;;;;5076255;28;20263;-73
2022/11/24 02:40:26;;;;;;;3.37;2.13;;;8.80;84.40;;;;;;5068635;28;20261;-72
2022/11/24 02:42:56;;;;;;;4.20;2.30;;;8.80;84.60;;;;;;5064939;28;20182;-72
2022/11/24 02:45:23;;;;;;;2.73;1.80;;;8.80;84.50;;;;;;5072930;28;20210;-72
2022/11/24 02:47:49;;;;;;;2.30;2.10;;;8.80;84.60;;;;;;5067099;28;20294;-73
2022/11/24 02:50:15;;;;;;;3.10;1.57;;;8.80;84.80;;;;;;5069595;28;20167;-73
2022/11/24 02:52:41;;;;;;;1.73;1.63;;;8.80;85.30;;;;;;5066189;28;20210;-73
2022/11/24 02:55:07;;;;;;;1.97;1.77;;;8.80;85.30;;;;;;5068465;28;20183;-73
2022/11/24 02:57:32;;;;;;;2.67;1.93;;;8.80;84.80;;;;;;5070871;28;20174;-73
2022/11/24 02:59:58;;;;;;;2.10;2.00;;;8.80;84.80;;;;;;5065492;28;21178;-73
2022/11/24 03:02:24;;;;;;;1.70;1.70;;;8.80;84.30;;;;;;5063453;28;20179;-73
2022/11/24 03:04:49;;;;;;;2.17;1.87;;;8.80;84.40;;;;;;5065468;28;20629;-73
2022/11/24 03:07:15;;;;;;;1.87;1.73;;;8.80;84.90;;;;;;5067360;28;20201;-73
2022/11/24 03:09:41;;;;;;;2.77;1.90;;;8.80;84.50;;;;;;5071584;28;20281;-73
2022/11/24 03:12:07;;;;;;;3.73;1.93;;;8.90;85.50;;;;;;5072101;28;20214;-73
2022/11/24 03:14:32;;;;;;;2.53;2.40;;;8.80;85.10;;;;;;5065228;28;20946;-73
2022/11/24 03:16:58;;;;;;;3.43;2.30;;;8.80;84.20;;;;;;5071927;28;20247;-73
2022/11/24 03:19:24;;;;;;;4.00;2.43;;;8.80;84.70;;;;;;5065119;28;20183;-73
2022/11/24 03:21:50;;;;;;;2.40;2.30;;;8.80;84.30;;;;;;5065604;28;20194;-73
2022/11/24 03:24:15;;;;;;;1.87;1.77;;;8.80;84.30;;;;;;5069212;28;20197;-73
2022/11/24 03:26:41;;;;;;;2.77;2.47;;;8.80;84.20;;;;;;5068726;28;20228;-73
2022/11/24 03:29:07;;;;;;;2.47;2.37;;;8.80;84.10;;;;;;5067703;28;20207;-72
2022/11/24 03:31:33;;;;;;;2.20;2.00;;;8.80;84.00;;;;;;5065985;28;20207;-73
2022/11/24 03:33:59;;;;;;;2.67;2.47;;;8.90;84.30;;;;;;5063928;28;20274;-73
2022/11/24 03:36:25;;;;;;;2.30;2.03;;;8.90;84.30;;;;;;5067815;28;20246;-73
2022/11/24 03:38:50;;;;;;;5.80;2.83;;;8.90;84.50;;;;;;5071769;28;20186;-73
2022/11/24 03:41:16;;;;;;;4.23;3.60;;;8.90;84.80;;;;;;5063929;28;20188;-73
2022/11/24 03:43:42;;;;;;;4.13;3.67;;;8.90;84.90;;;;;;5064903;28;20286;-73
2022/11/24 03:46:07;;;;;;;4.10;3.70;;;8.90;85.00;;;;;;5069219;28;20218;-73
2022/11/24 03:48:33;;;;;;;4.35;3.95;;;9.00;85.20;;;;;;5065507;28;20229;-73
2022/11/24 03:51:01;;;;;;;4.60;3.63;;;8.90;85.00;;;;;;5066650;28;20358;-72
2022/11/24 03:53:29;;;;;;;3.33;3.03;;;8.90;85.00;;;;;;5065601;28;20186;-72
2022/11/24 03:55:56;;;;;;;3.50;3.13;;;9.00;84.80;;;;;;5065138;28;20266;-73
2022/11/24 03:58:21;;;;;;;3.73;3.00;;;8.90;84.70;;;;;;5065226;28;20252;-74
2022/11/24 04:00:48;;;;;;;5.07;3.67;;;8.90;84.40;;;;;;5064659;28;21793;-73
2022/11/24 04:03:15;;;;;;;3.53;3.23;;;8.90;84.60;;;;;;5064346;28;21022;-73
2022/11/24 04:05:40;;;;;;;4.63;3.37;;;9.00;85.20;;;;;;5057090;28;20562;-73
2022/11/24 04:08:06;;;;;;;3.63;2.93;;;9.00;85.00;;;;;;5065231;28;20187;-72
2022/11/24 04:10:35;;;;;;;3.53;2.75;;;8.90;84.40;;;;;;5059249;28;20950;-71
2022/11/24 04:13:02;;;;;;;5.18;2.97;;;8.90;84.20;;;;;;5065459;28;20565;-72
2022/11/24 04:15:28;;;;;;;4.20;3.22;;;9.00;84.50;;;;;;5059004;28;20770;-74
2022/11/24 04:17:55;;;;;;;3.97;3.67;;;8.90;84.20;;;;;;5064678;28;20186;-73
2022/11/24 04:20:21;;;;;;;3.90;3.50;;;8.90;84.60;;;;;;5060417;28;20992;-74
2022/11/24 04:22:49;;;;;;;3.67;3.37;;;9.00;84.60;;;;;;5063416;28;20316;-74
2022/11/24 04:25:16;;;;;;;4.90;3.73;;;9.00;85.50;;;;;;5064668;28;21579;-72
2022/11/24 04:27:42;;;;;;;6.50;4.37;;;9.00;85.60;;;;;;5068022;28;20808;-72
2022/11/24 04:30:08;;;;;;;4.53;4.03;;;9.00;85.30;;;;;;5061098;28;20186;-73
2022/11/24 04:32:35;;;;;;;4.20;3.80;;;9.00;85.40;;;;;;5065992;28;20353;-74
2022/11/24 04:35:00;;;;;;;4.50;3.83;;;8.90;85.80;;;;;;5064644;28;20206;-73
2022/11/24 04:37:26;;;;;;;6.93;4.13;;;8.90;86.00;;;;;;5061321;28;20294;-73
2022/11/24 04:39:53;;;;;;;8.50;5.57;;;8.80;86.20;;;;;;5061053;28;20213;-73
2022/11/24 04:42:19;;;;;;;4.87;4.37;;;8.80;86.30;;;;;;5060746;28;20198;-73
2022/11/24 04:44:45;;;;;;;7.37;4.73;;;8.80;86.50;;;;;;5057469;28;20199;-73
2022/11/24 04:47:18;;;;;;;6.57;5.20;;;8.70;86.60;;;;;;5061738;28;20189;-73
2022/11/24 04:49:46;;;;;;;9.10;5.10;;;8.70;86.70;;;;;;5059345;28;20273;-73
2022/11/24 04:52:12;;;;;;;5.33;4.67;;;8.70;86.90;;;;;;5059496;28;20202;-74
2022/11/24 04:54:37;;;;;;;8.17;5.27;;;8.60;87.40;;;;;;5055936;28;20201;-73
2022/11/24 04:57:03;;;;;;;5.80;4.73;;;8.60;87.20;;;;;;5065566;28;20277;-74
2022/11/24 04:59:29;;;;;;;5.73;3.97;;;8.50;87.30;;;;;;5064765;28;20182;-72
2022/11/24 05:01:54;;;;;;;5.40;4.33;;;8.50;86.90;;;;;;5063351;28;20182;-73
2022/11/24 05:04:20;;;;;;;7.93;4.63;;;8.50;86.80;;;;;;5061379;28;20213;-73
2022/11/24 05:06:46;;;;;;;6.30;4.27;;;8.50;87.20;;;;;;5060227;28;20174;-75
2022/11/24 05:09:16;;;;;;;6.93;4.00;;;8.50;87.60;;;;;;5069731;28;20750;-72
2022/11/24 05:11:42;;;;;;;6.57;4.27;;;8.50;87.30;;;;;;5058966;28;20209;-72
2022/11/24 05:14:08;;;;;;;4.67;4.27;;;8.50;87.20;;;;;;5065631;28;20175;-71
2022/11/24 05:16:34;;;;;;;3.57;3.37;;;8.50;87.10;;;;;;5068462;28;20797;-74
2022/11/24 05:19:00;;;;;;;7.27;4.40;;;8.50;86.90;;;;;;5066155;28;20924;-74
2022/11/24 05:21:26;;;;;;;8.03;4.17;;;8.50;86.60;;;;;;5062450;28;20190;-73
2022/11/24 05:23:52;;;;;;;4.47;3.53;;;8.60;86.40;;;;;;5063948;28;20655;-74
2022/11/24 05:26:18;;;;;;;4.27;3.77;;;8.60;86.40;;;;;;5060288;28;20193;-73
2022/11/24 05:28:44;;;;;;;5.60;3.93;;;8.60;86.20;;;;;;5057230;28;20311;-73
2022/11/24 05:31:09;;;;;;;4.10;3.53;;;8.60;86.10;;;;;;5066041;28;20293;-72
2022/11/24 05:33:35;;;;;;;7.93;4.23;;;8.70;86.50;;;;;;5066659;28;20187;-74
2022/11/24 05:36:04;;;;;;;3.90;3.60;;;8.70;86.90;;;;;;5068113;28;20193;-73
2022/11/24 05:38:30;;;;;;;5.73;4.13;;;8.80;87.00;;;;;;5064404;28;20256;-74
2022/11/24 05:41:00;;;;;;;8.17;4.20;;;8.80;86.70;;;;;;5067166;28;20191;-74
2022/11/24 05:43:26;;;;;;;6.73;4.47;;;8.80;86.50;;;;;;5063516;28;20215;-72
2022/11/24 05:45:51;;;;;;;8.88;4.25;;;8.80;86.30;;;;;;5067762;28;20933;-74
2022/11/24 05:48:17;;;;;;;6.17;4.30;;;8.80;86.10;;;;;;5068506;28;20233;-73
2022/11/24 05:50:43;;;;;;;6.73;4.33;;;8.80;86.50;;;;;;5065202;28;20199;-72
2022/11/24 05:53:11;;;;;;;6.93;4.37;;;8.90;86.80;;;;;;5064051;28;20265;-73
2022/11/24 05:55:39;;;;;;;5.10;4.07;;;8.90;86.50;;;;;;5069994;28;20182;-73
2022/11/24 05:58:07;;;;;;;4.33;3.97;;;8.90;86.40;;;;;;5067358;28;20183;-74
2022/11/24 06:00:34;;;;;;;7.27;4.23;;;8.90;86.40;;;;;;5065166;28;20188;-73
2022/11/24 06:03:00;;;;;;;3.88;3.50;;;8.90;86.30;;;;;;5066298;28;20175;-71
2022/11/24 06:05:27;;;;;;;5.23;4.10;;;9.00;86.40;;;;;;5075176;28;20178;-71
2022/11/24 06:07:54;;;;;;;4.63;4.33;;;9.00;86.30;;;;;;5074448;28;20226;-71
2022/11/24 06:10:21;;;;;;;5.43;4.20;;;9.00;86.30;;;;;;5074385;28;20690;-71
2022/11/24 06:12:46;;;;;;;5.25;4.25;;;9.10;86.30;;;;;;5063503;28;20672;-71
2022/11/24 06:15:12;;;;;;;8.80;4.87;;;9.10;86.30;;;;;;5070870;28;20186;-71
2022/11/24 06:17:39;;;;;;;8.57;5.40;;;9.10;86.30;;;;;;5074181;28;20298;-71
2022/11/24 06:20:06;;;;;;;4.88;4.45;;;9.10;86.20;;;;;;5064651;28;20272;-72
2022/11/24 06:22:32;;;;;;;6.00;4.47;;;9.20;86.10;;;;;;5071252;28;20864;-71
2022/11/24 06:24:58;;;;;;;6.40;4.23;;;9.20;86.00;;;;;;5070342;28;20750;-72
2022/11/24 06:27:23;;;;;;;8.90;4.43;;;9.30;86.20;;;;;;5069825;28;20274;-71
2022/11/24 06:29:49;;;;;;;7.25;4.40;;;9.30;86.30;;;;;;5071020;28;20182;-71
2022/11/24 06:32:15;;;;;;;5.85;4.80;;;9.30;86.30;;;;;;5072711;28;20245;-71
2022/11/24 06:34:41;;;;;;;9.50;5.55;;;9.40;86.20;;;;;;5073002;28;20248;-71
2022/11/24 06:37:08;;;;;;;8.65;4.57;;;9.40;86.50;;;;;;5066324;28;20282;-71
2022/11/24 06:39:33;;;;;;;8.68;5.10;;;9.50;86.50;;;;;;5073093;28;20209;-71
2022/11/24 06:41:59;;;;;;;7.57;5.57;;;9.50;86.40;;;;;;5067142;28;20175;-71
2022/11/24 06:44:25;;;;;;;8.65;6.57;;;9.50;86.20;;;;;;5067006;28;20907;-71
2022/11/24 06:46:51;;;;;;;8.30;5.95;;;9.60;86.60;;;;;;5068036;28;20183;-71
2022/11/24 06:49:16;;;;;;;7.63;6.65;;;9.60;86.50;;;;;;5072609;28;20800;-71
2022/11/24 06:51:42;;;;;;;13.13;5.97;;;9.70;86.70;;;;;;5068210;28;20219;-71
2022/11/24 06:54:09;;;;;;;11.48;6.70;;;9.70;86.20;;;;;;5068661;28;20274;-71
2022/11/24 06:56:35;;;;;;;13.40;7.55;;;9.70;86.10;;;;;;5065452;28;20187;-71
2022/11/24 06:59:02;;;;;;;11.27;7.07;;;9.70;86.10;;;;;;5068086;28;20175;-71
2022/11/24 07:01:28;;;;;;;14.77;8.98;;;9.70;86.30;;;;;;5069054;28;20189;-71
2022/11/24 07:03:55;;;;;;;13.60;8.85;;;9.70;86.10;;;;;;5067708;28;20182;-71
2022/11/24 07:06:23;;;;;;;14.82;8.43;;;9.70;85.90;;;;;;5068876;28;20194;-71
2022/11/24 07:08:49;;;;;;;14.65;8.10;;;9.80;85.60;;;;;;5066852;28;20259;-71
2022/11/24 07:11:18;;;;;;;9.88;7.43;;;9.80;86.00;;;;;;5066794;28;20214;-71
2022/11/24 07:13:45;;;;;;;8.73;7.03;;;9.80;85.70;;;;;;5066135;28;20591;-71
2022/11/24 07:16:16;;;;;;;6.25;5.53;;;9.80;85.60;;;;;;5069304;28;20187;-72
2022/11/24 07:18:43;;;;;;;8.70;5.70;;;9.80;85.50;;;;;;5068593;28;20186;-71
2022/11/24 07:21:09;;;;;;;6.03;5.32;;;9.80;85.40;;;;;;5067473;28;20193;-71
2022/11/24 07:23:35;;;;;;;9.93;5.65;;;9.90;85.40;;;;;;5070435;28;20207;-71
2022/11/24 07:26:05;;;;;;;7.20;5.65;;;9.90;85.60;;;;;;5064247;28;20229;-71
2022/11/24 07:28:31;;;;;;;5.97;4.20;;;9.90;85.00;;;;;;5067859;28;20174;-71
2022/11/24 07:30:57;;;;;;;4.70;4.30;;;9.90;85.00;;;;;;5068145;28;20213;-71
2022/11/24 07:33:24;;;;;;;4.75;4.35;;;9.90;85.00;;;;;;5070555;28;20208;-71
2022/11/24 07:35:54;;;;;;;11.05;4.78;;;9.90;85.00;;;;;;5071532;28;20289;-71
2022/11/24 07:38:20;;;;;;;6.13;3.58;;;9.90;85.00;;;;;;5068984;28;20206;-71
2022/11/24 07:40:46;;;;;;;5.82;4.20;;;9.80;85.00;;;;;;5069820;28;20587;-71
2022/11/24 07:43:12;;;;;;;4.90;4.18;;;9.80;85.10;;;;;;5067516;28;20182;-71
2022/11/24 07:45:37;;;;;;;3.92;3.63;;;9.80;85.20;;;;;;5069292;28;21132;-71
2022/11/24 07:48:03;;;;;;;7.20;3.88;;;9.70;85.50;;;;;;5071450;28;20190;-71
2022/11/24 07:50:29;;;;;;;3.85;3.10;;;9.70;85.50;;;;;;5069660;28;20190;-71
2022/11/24 07:52:54;;;;;;;3.75;3.50;;;9.70;85.60;;;;;;5069591;28;20209;-71
2022/11/24 07:55:20;;;;;;;4.22;3.70;;;9.70;85.90;;;;;;5070768;28;20189;-71
2022/11/24 07:57:46;;;;;;;5.03;3.40;;;9.60;86.00;;;;;;5069751;28;20640;-70
2022/11/24 08:00:12;;;;;;;3.00;2.80;;;9.50;86.20;;;;;;5065374;28;20179;-70
2022/11/24 08:02:38;;;;;;;3.45;3.25;;;9.30;86.40;;;;;;5061162;28;20186;-71
2022/11/24 08:05:04;;;;;;;3.53;3.22;;;9.20;86.70;;;;;;5061633;28;20251;-70
2022/11/24 08:07:30;;;;;;;3.35;3.10;;;9.00;87.10;;;;;;5054770;28;21035;-69
2022/11/24 08:09:55;;;;;;;3.17;2.88;;;9.00;87.30;;;;;;5061368;28;20183;-70
2022/11/24 08:12:21;;;;;;;3.08;2.95;;;8.90;87.00;;;;;;5061864;28;20217;-70
2022/11/24 08:14:50;;;;;;;2.97;2.78;;;9.00;87.10;;;;;;5068298;28;20190;-72
2022/11/24 08:17:16;;;;;;;3.77;3.17;;;8.90;87.80;;;;;;5063175;28;20854;-70
2022/11/24 08:19:43;;;;;;;3.33;3.20;;;8.80;87.40;;;;;;5060320;28;20622;-70
2022/11/24 08:22:09;;;;;;;2.92;2.72;;;8.80;87.60;;;;;;5069060;28;20187;-70
2022/11/24 08:24:34;;;;;;;3.40;3.17;;;8.80;87.70;;;;;;5066455;28;20190;-70
2022/11/24 08:27:00;;;;;;;3.38;3.17;;;8.70;87.80;;;;;;5068195;28;20182;-70
2022/11/24 08:29:30;;;;;;;2.63;2.47;;;8.70;88.00;;;;;;5069982;28;20573;-72
2022/11/24 08:31:56;;;;;;;2.77;2.67;;;8.50;88.00;;;;;;5067587;28;20333;-70
2022/11/24 08:34:23;;;;;;;2.90;2.70;;;8.60;87.80;;;;;;5068774;28;20179;-71
2022/11/24 08:36:50;;;;;;;5.27;3.20;;;8.40;88.30;;;;;;5069210;28;20182;-70
2022/11/24 08:39:16;;;;;;;3.83;2.67;;;8.40;88.10;;;;;;5062103;28;20182;-70
2022/11/24 08:41:42;;;;;;;3.90;3.43;;;8.30;88.80;;;;;;5063669;28;20212;-71
2022/11/24 08:44:09;;;;;;;2.23;2.03;;;8.30;88.60;;;;;;5068651;28;20182;-72
2022/11/24 08:46:35;;;;;;;2.77;2.53;;;8.10;89.00;;;;;;5071931;28;22241;-71
2022/11/24 08:49:02;;;;;;;4.03;2.83;;;8.00;89.20;;;;;;5061151;28;20952;-72
2022/11/24 08:51:28;;;;;;;2.73;2.60;;;8.00;89.20;;;;;;5059244;28;20218;-71
2022/11/24 08:53:56;;;;;;;1.40;1.30;;;7.90;89.70;;;;;;5062243;28;20186;-71
2022/11/24 08:56:24;;;;;;;1.30;1.30;;;7.90;89.30;;;;;;5060469;28;20189;-71
2022/11/24 08:58:49;;;;;;;1.33;1.33;;;7.80;89.20;;;;;;5062406;28;20849;-71
2022/11/24 09:01:16;;;;;;;2.50;0.93;;;7.80;89.10;;;;;;5068787;28;20182;-71
2022/11/24 09:03:43;;;;;;;1.20;1.10;;;7.80;88.70;;;;;;5058789;28;20186;-71
2022/11/24 09:06:09;;;;;;;1.10;1.07;;;7.80;88.90;;;;;;5067191;28;20202;-70
2022/11/24 09:08:37;;;;;;;0.87;0.87;;;7.70;89.10;;;;;;5058249;28;20182;-71
2022/11/24 09:11:09;;;;;;;1.87;1.13;;;7.70;88.90;;;;;;5067438;28;20234;-71
2022/11/24 09:13:35;;;;;;;0.93;0.93;;;7.70;88.70;;;;;;5065606;28;20206;-70
2022/11/24 09:16:10;;;;;;;1.70;0.97;;;7.70;88.90;;;;;;5067787;28;20183;-71
2022/11/24 09:18:37;;;;;;;1.10;1.00;;;7.70;88.40;;;;;;5070305;28;20189;-71
2022/11/24 09:21:07;;;;;;;0.87;0.87;;;7.70;88.10;;;;;;5072728;28;20197;-70
2022/11/24 09:23:33;;;;;;;0.73;0.73;;;7.70;88.10;;;;;;5067602;28;20379;-70
2022/11/24 09:26:05;;;;;;;2.83;0.80;;;7.60;87.60;;;;;;5063540;28;20179;-70
2022/11/24 09:28:31;;;;;;;0.90;0.90;;;7.60;87.60;;;;;;5069141;28;20189;-70
2022/11/24 09:31:01;;;;;;;1.23;0.80;;;7.70;87.50;;;;;;5066907;28;20195;-70
2022/11/24 09:33:27;;;;;;;2.07;0.63;;;7.70;86.90;;;;;;5071460;28;20183;-71
2022/11/24 09:35:53;;;;;;;0.60;0.60;;;7.70;86.90;;;;;;5070486;28;20560;-71
2022/11/24 09:38:19;;;;;;;0.60;0.60;;;7.70;86.80;;;;;;5067253;28;20197;-71
2022/11/24 09:40:44;;;;;;;0.83;0.63;;;7.80;86.60;;;;;;5072079;28;20179;-71
2022/11/24 09:43:52;;;;;;;0.50;0.50;;;7.80;86.00;;;;;;5059788;28;20191;-71
2022/11/24 09:46:57;;;;;;;0.83;0.83;;;7.80;86.20;;;;;;5041923;28;20315;-71
2022/11/24 09:49:52;;;;;;;1.80;0.40;;;7.70;86.10;;;;;;5041577;28;20400;-70
2022/11/24 09:52:37;;;;;;;0.30;0.30;;;7.70;85.80;;;;;;5048639;28;20227;-70
2022/11/24 09:55:14;;;;;;;0.40;0.40;;;7.50;85.10;;;;;;5046958;28;20665;-70
2022/11/24 09:57:42;;;;;;;1.30;0.60;;;7.50;85.40;;;;;;5044078;28;20270;-71
2022/11/24 10:00:12;;;;;;;0.67;0.67;;;7.40;85.60;;;;;;5029582;28;20188;-70
2022/11/24 10:02:38;;;;;;;0.50;0.50;;;7.40;86.00;;;;;;5045158;28;20199;-70
2022/11/24 10:05:05;;;;;;;1.63;0.53;;;7.30;86.20;;;;;;5042968;28;20230;-69
2022/11/24 10:07:44;;;;;;;0.50;0.50;;;7.20;86.10;;;;;;5049089;28;20707;-70
2022/11/24 10:10:44;;;;;;;0.70;0.70;;;7.10;86.50;;;;;;5043794;28;20211;-71
2022/11/24 10:13:33;;;;;;;0.60;0.60;;;7.20;86.40;;;;;;5046743;28;20199;-71
2022/11/24 10:15:59;;;;;;;0.77;0.77;;;7.10;86.40;;;;;;5041949;28;20192;-70
2022/11/24 10:18:40;;;;;;;0.80;0.80;;;7.00;86.30;;;;;;5051272;28;20271;-71
2022/11/24 10:21:14;;;;;;;0.87;0.87;;;6.80;86.30;;;;;;5046234;28;20257;-69
2022/11/24 10:24:16;;;;;;;0.77;0.77;;;6.90;86.40;;;;;;5072691;28;20197;-71
2022/11/24 10:26:57;;;;;;;0.83;0.83;;;6.80;86.40;;;;;;5068813;28;20183;-72
2022/11/24 10:29:41;;;;;;;0.90;0.90;;;6.80;86.50;;;;;;5064368;28;20578;-70
2022/11/24 10:32:28;;;;;;;0.43;0.43;;;6.80;86.30;;;;;;5063669;28;20218;-71
2022/11/24 10:34:58;;;;;;;0.87;0.87;;;6.70;86.30;;;;;;5067071;28;20606;-70
2022/11/24 10:37:50;;;;;;;0.80;0.80;;;6.80;86.20;;;;;;5068679;28;20182;-70
2022/11/24 10:40:43;;;;;;;1.13;0.77;;;6.70;86.00;;;;;;5061325;28;20194;-72
2022/11/24 10:43:10;;;;;;;3.20;0.70;;;6.80;86.00;;;;;;5062753;28;20250;-70
2022/11/24 10:45:38;;;;;;;1.30;0.83;;;6.80;85.90;;;;;;5070596;28;20225;-71
2022/11/24 10:48:19;;;;;;;0.77;0.77;;;6.70;85.60;;;;;;5065709;28;20241;-70
2022/11/24 10:50:45;;;;;;;0.63;0.63;;;6.70;85.60;;;;;;5070681;28;20230;-70
2022/11/24 10:53:17;;;;;;;0.80;0.80;;;6.70;85.30;;;;;;5067267;28;20184;-70
2022/11/24 10:55:55;;;;;;;2.63;0.50;;;6.70;85.30;;;;;;5065517;28;20182;-70
2022/11/24 10:58:25;;;;;;;0.90;0.90;;;6.70;85.00;;;;;;5064283;28;20187;-71
2022/11/24 11:00:52;;;;;;;0.90;0.90;;;6.70;85.30;;;;;;5065950;28;20171;-71
2022/11/24 11:03:20;;;;;;;1.07;1.00;;;6.70;85.00;;;;;;5063598;28;20309;-71
2022/11/24 11:06:07;;;;;;;0.70;0.70;;;6.70;84.80;;;;;;5067609;28;20185;-71
2022/11/24 11:08:33;;;;;;;0.83;0.83;;;6.80;84.60;;;;;;5071494;28;20202;-71
2022/11/24 11:11:17;;;;;;;2.60;1.00;;;6.80;84.50;;;;;;5071148;28;20601;-71
2022/11/24 11:13:57;;;;;;;1.07;1.07;;;6.90;84.30;;;;;;5069776;28;20261;-71
2022/11/24 11:16:29;;;;;;;1.30;1.30;;;7.00;84.40;;;;;;5070703;28;20183;-71
2022/11/24 11:18:55;;;;;;;4.83;1.17;;;7.00;84.20;;;;;;5070769;28;20223;-71
2022/11/24 11:21:39;;;;;;;1.33;1.17;;;7.10;84.10;;;;;;5063840;28;20229;-71
2022/11/24 11:24:13;;;;;;;1.77;1.67;;;7.20;83.90;;;;;;5065864;28;20187;-71
2022/11/24 11:26:41;;;;;;;1.37;1.37;;;7.10;83.80;;;;;;5071588;28;20994;-71
2022/11/24 11:29:06;;;;;;;1.47;1.47;;;7.10;83.60;;;;;;5062448;28;20178;-72
2022/11/24 11:31:33;;;;;;;1.43;1.37;;;7.20;83.20;;;;;;5074373;28;20210;-72
2022/11/24 11:34:11;;;;;;;1.40;1.30;;;7.10;83.00;;;;;;5067136;28;21237;-72
2022/11/24 11:36:49;;;;;;;1.40;1.20;;;7.20;83.00;;;;;;5062874;28;20194;-71
2022/11/24 11:39:39;;;;;;;2.90;1.50;;;7.10;82.80;;;;;;5058678;28;20195;-71
2022/11/24 11:42:29;;;;;;;2.20;2.10;;;7.10;82.90;;;;;;5063972;28;20194;-71
2022/11/24 11:45:20;;;;;;;1.17;1.17;;;7.10;83.00;;;;;;5066649;28;20213;-71
2022/11/24 11:47:58;;;;;;;1.00;1.00;;;7.20;83.00;;;;;;5057671;28;20189;-71
2022/11/24 11:50:37;;;;;;;1.70;1.60;;;7.10;82.70;;;;;;5059066;28;20247;-71
2022/11/24 11:53:15;;;;;;;1.20;1.10;;;7.10;82.90;;;;;;5065238;28;20223;-71
2022/11/24 11:56:01;;;;;;;1.50;1.33;;;7.20;82.90;;;;;;5064845;28;20194;-70
2022/11/24 11:58:36;;;;;;;2.03;1.63;;;7.10;82.80;;;;;;5065312;28;20198;-69
2022/11/24 12:01:26;;;;;;;2.13;1.67;;;7.20;83.00;;;;;;5066239;28;20239;-71
2022/11/24 12:04:14;;;;;;;1.57;1.47;;;7.30;82.50;;;;;;5063424;28;20577;-71
2022/11/24 12:06:58;;;;;;;1.20;1.20;;;7.40;82.40;;;;;;5063525;28;20264;-71
2022/11/24 12:09:43;;;;;;;1.23;1.00;;;7.60;82.30;;;;;;5058665;28;20228;-72
2022/11/24 12:12:17;;;;;;;0.80;0.80;;;7.80;81.20;;;;;;5067844;28;20711;-72
2022/11/24 12:14:56;;;;;;;1.00;1.00;;;7.90;80.30;;;;;;5067113;28;20182;-71
2022/11/24 12:17:39;;;;;;;1.13;1.13;;;7.90;80.00;;;;;;5067146;28;20261;-70
2022/11/24 12:20:41;;;;;;;0.97;0.97;;;8.00;79.50;;;;;;5070297;28;20671;-71
2022/11/24 12:23:26;;;;;;;1.10;1.00;;;7.90;79.40;;;;;;5065500;28;20183;-71
2022/11/24 12:26:24;;;;;;;0.80;0.80;;;8.00;79.60;;;;;;5061193;28;20187;-71
2022/11/24 12:29:08;;;;;;;1.00;1.00;;;7.90;79.50;;;;;;5064514;28;20187;-71
2022/11/24 12:32:04;;;;;;;2.43;1.57;;;7.90;79.30;;;;;;5061417;28;20257;-71
2022/11/24 12:34:30;;;;;;;1.60;1.50;;;7.90;79.50;;;;;;5061746;28;20563;-70
2022/11/24 12:37:20;;;;;;;1.33;1.23;;;8.00;79.50;;;;;;5060578;28;20183;-70
2022/11/24 12:39:54;;;;;;;1.50;1.40;;;7.90;78.70;;;;;;5061350;28;20647;-70
2022/11/24 12:42:20;;;;;;;1.13;1.13;;;7.90;78.80;;;;;;5061534;28;20257;-70
2022/11/24 12:45:07;;;;;;;1.37;1.33;;;7.80;78.80;;;;;;5065298;28;20310;-70
2022/11/24 12:47:59;;;;;;;1.57;1.30;;;7.80;78.90;;;;;;5067421;28;20182;-70
2022/11/24 12:50:29;;;;;;;1.73;1.63;;;7.90;78.70;;;;;;5035591;28;20381;-70
2022/11/24 12:53:12;;;;;;;1.23;1.23;;;7.90;78.50;;;;;;5037050;28;20235;-71
2022/11/24 12:55:40;;;;;;;1.00;1.00;;;8.00;78.40;;;;;;5036779;28;20195;-69
2022/11/24 12:58:08;;;;;;;0.83;0.83;;;8.00;78.00;;;;;;5020451;28;20362;-70
2022/11/24 13:00:40;;;;;;;1.20;1.20;;;8.00;77.90;;;;;;5036104;28;20687;-70
2022/11/24 13:03:26;;;;;;;0.90;0.90;;;8.00;77.60;;;;;;5034580;28;20593;-70
2022/11/24 13:05:57;;;;;;;0.80;0.80;;;8.10;78.10;;;;;;5036008;28;20184;-72
2022/11/24 13:08:25;;;;;;;1.00;1.00;;;8.10;79.00;;;;;;5035345;28;20221;-71
2022/11/24 13:10:50;;;;;;;1.10;1.00;;;8.20;78.40;;;;;;5033530;28;20187;-71
2022/11/24 13:13:16;;;;;;;0.90;0.90;;;8.20;78.30;;;;;;5034793;28;20669;-71